Time;durP1;ratioP1;P1;durP2;ratioP2;P2;SDS_P1;SDS_P2;PMS_P1;PMS_P2;Temp;Humidity;BMP_temperature;BMP_pressure;BME280_temperature;BME280_humidity;BME280_pressure;Samples;Min_cycle;Max_cycle;Signal;HPM_P1;HPM_P2
2022/03/30 00:00:06;;;;;;;;;50.67;39.33;;;;;15.50;54.39;100042.47;5016219;28;45228;-70
2022/03/30 00:02:32;;;;;;;;;57.50;46.25;;;;;15.52;54.26;100040.41;5016398;28;45428;-69
2022/03/30 00:04:57;;;;;;;;;49.25;41.25;;;;;15.54;54.16;100037.53;5007070;28;45534;-69
2022/03/30 00:07:23;;;;;;;;;55.25;44.00;;;;;15.41;54.59;100019.50;5016047;28;45551;-73
2022/03/30 00:09:48;;;;;;;;;52.50;41.00;;;;;15.46;54.31;100019.75;5013834;28;45494;-68
2022/03/30 00:12:14;;;;;;;;;48.25;41.25;;;;;15.53;54.02;100031.34;5016581;28;45320;-70
2022/03/30 00:14:39;;;;;;;;;47.00;39.75;;;;;15.58;54.11;100030.75;5013831;28;45309;-69
2022/03/30 00:17:05;;;;;;;;;47.75;38.50;;;;;15.61;53.95;100024.22;5016015;28;45319;-69
2022/03/30 00:19:31;;;;;;;;;51.67;40.33;;;;;15.21;54.14;99955.03;5013049;28;45500;-70
2022/03/30 00:21:57;;;;;;;;;58.00;45.33;;;;;15.60;54.32;100025.25;5014793;28;45266;-69
2022/03/30 00:24:23;;;;;;;;;49.25;40.25;;;;;15.58;54.31;100027.25;5016374;28;45286;-70
2022/03/30 00:26:48;;;;;;;;;55.75;45.75;;;;;15.27;54.22;99979.41;5015685;28;46804;-69
2022/03/30 00:29:14;;;;;;;;;50.50;41.00;;;;;15.42;54.62;100013.13;5015619;28;45513;-69
2022/03/30 00:31:40;;;;;;;;;51.25;42.00;;;;;15.35;54.86;100020.28;5015945;28;45233;-69
2022/03/30 00:34:05;;;;;;;;;56.25;44.25;;;;;15.16;55.13;100010.19;5016272;28;45230;-68
2022/03/30 00:36:30;;;;;;;;;55.00;44.50;;;;;15.23;54.77;100007.59;5014419;28;46230;-69
2022/03/30 00:38:56;;;;;;;;;53.67;43.67;;;;;14.94;55.64;99969.22;5015750;28;45288;-69
2022/03/30 00:41:21;;;;;;;;;58.00;47.25;;;;;15.16;55.67;100012.88;5003110;28;45404;-69
2022/03/30 00:43:47;;;;;;;;;61.75;45.75;;;;;15.16;56.05;100008.34;5016190;28;45267;-69
2022/03/30 00:46:12;;;;;;;;;56.33;45.33;;;;;15.05;56.37;100008.06;5011271;28;47587;-70
2022/03/30 00:48:39;;;;;;;;;60.50;48.25;;;;;15.04;56.29;100007.22;5014234;28;45622;-74
2022/03/30 00:51:05;;;;;;;;;59.50;49.00;;;;;14.99;56.62;99995.41;5019159;28;45257;-69
2022/03/30 00:53:30;;;;;;;;;59.50;47.00;;;;;14.83;56.79;99983.94;5019304;28;45420;-69
2022/03/30 00:55:56;;;;;;;;;59.75;49.75;;;;;14.84;57.33;99993.63;5018725;28;45726;-69
2022/03/30 00:58:23;;;;;;;;;54.75;42.25;;;;;14.89;57.17;99990.38;5019055;28;45270;-68
2022/03/30 01:00:49;;;;;;;;;57.75;45.50;;;;;14.85;57.05;99973.88;5017581;28;45337;-70
2022/03/30 01:03:15;;;;;;;;;63.25;48.00;;;;;14.90;57.33;99971.47;5019578;28;45250;-70
2022/03/30 01:05:40;;;;;;;;;65.50;53.75;;;;;14.15;57.86;99862.19;5017495;28;47671;-69
2022/03/30 01:08:05;;;;;;;;;58.75;48.75;;;;;14.74;57.41;99963.66;5016940;28;46201;-71
2022/03/30 01:10:31;;;;;;;;;63.75;49.50;;;;;14.31;58.74;99917.28;5018884;28;45509;-69
2022/03/30 01:12:56;;;;;;;;;68.00;52.75;;;;;14.45;59.27;99971.78;5017812;28;45163;-69
2022/03/30 01:15:23;;;;;;;;;59.25;49.25;;;;;13.94;59.59;99905.72;5018713;28;45745;-69
2022/03/30 01:17:49;;;;;;;;;66.50;52.25;;;;;14.22;60.02;99967.38;5014279;28;45369;-70
2022/03/30 01:20:18;;;;;;;;;61.00;49.00;;;;;14.18;60.01;99947.34;5018844;28;45494;-68
2022/03/30 01:22:43;;;;;;;;;59.00;47.75;;;;;13.89;59.57;99892.09;5018454;28;45403;-68
2022/03/30 01:25:09;;;;;;;;;56.75;48.25;;;;;14.38;59.08;99938.75;5018137;28;45953;-69
2022/03/30 01:27:35;;;;;;;;;61.75;50.00;;;;;14.40;59.00;99944.72;5018331;28;45577;-70
2022/03/30 01:33:07;;;;;;;;;60.50;48.50;;;;;14.39;59.67;99954.59;5018729;28;45463;-69
2022/03/30 01:35:34;;;;;;;;;70.50;51.50;;;;;14.40;60.34;99945.56;5016317;28;47788;-68
2022/03/30 01:38:00;;;;;;;;;55.50;47.25;;;;;14.34;60.25;99950.84;5017891;28;45403;-70
2022/03/30 01:40:26;;;;;;;;;64.50;48.50;;;;;14.30;60.55;99940.53;5018800;28;45453;-69
2022/03/30 01:42:52;;;;;;;;;69.75;53.75;;;;;14.05;60.35;99892.91;5018350;28;45329;-68
2022/03/30 01:45:17;;;;;;;;;63.25;51.75;;;;;14.09;60.33;99884.34;5017825;28;46830;-68
2022/03/30 01:47:50;;;;;;;;;63.00;50.50;;;;;14.48;60.02;99936.66;5017699;28;46202;-70
2022/03/30 01:50:15;;;;;;;;;60.00;49.00;;;;;13.98;60.29;99853.56;5018627;28;45430;-69
2022/03/30 01:52:41;;;;;;;;;66.50;53.50;;;;;14.50;60.17;99931.94;5018289;28;45285;-69
2022/03/30 01:55:07;;;;;;;;;68.75;54.25;;;;;13.58;60.26;99798.81;5016888;28;46523;-69
2022/03/30 01:57:32;;;;;;;;;61.75;50.25;;;;;14.30;60.47;99927.16;5017985;28;45442;-69
2022/03/30 01:59:58;;;;;;;;;63.50;49.25;;;;;14.07;60.82;99890.88;5017637;28;45347;-70
2022/03/30 02:02:23;;;;;;;;;67.00;52.75;;;;;14.23;61.14;99933.44;5018195;28;45467;-69
2022/03/30 02:04:49;;;;;;;;;58.75;49.50;;;;;13.71;61.78;99854.25;5017975;28;45741;-69
2022/03/30 02:07:23;;;;;;;;;63.75;50.50;;;;;13.87;61.69;99887.97;5018236;28;45569;-71
2022/03/30 02:09:48;;;;;;;;;71.00;54.75;;;;;14.05;62.08;99916.97;5018115;28;45241;-70
2022/03/30 02:12:14;;;;;;;;;64.00;52.75;;;;;14.06;61.76;99913.28;5018171;28;45470;-69
2022/03/30 02:14:41;;;;;;;;;66.00;52.00;;;;;14.08;61.22;99920.09;5008503;28;48738;-69
2022/03/30 02:17:06;;;;;;;;;65.25;51.50;;;;;14.20;61.66;99915.09;4996820;28;45503;-69
2022/03/30 02:19:32;;;;;;;;;66.25;51.25;;;;;13.94;60.97;99856.81;5017960;28;45470;-69
2022/03/30 02:21:58;;;;;;;;;63.25;50.00;;;;;14.24;60.72;99895.00;5018286;28;45376;-69
2022/03/30 02:24:24;;;;;;;;;63.50;49.75;;;;;14.27;60.57;99902.63;5017189;28;45781;-69
2022/03/30 02:26:50;;;;;;;;;65.50;49.50;;;;;14.27;60.80;99883.94;5012778;28;45589;-73
2022/03/30 02:29:16;;;;;;;;;67.75;54.75;;;;;14.18;60.98;99882.38;5015438;28;45336;-70
2022/03/30 02:31:42;;;;;;;;;65.25;51.25;;;;;14.12;61.02;99878.59;5016537;28;45574;-70
2022/03/30 02:34:09;;;;;;;;;68.25;50.50;;;;;14.17;61.68;99894.91;5017138;28;46095;-68
2022/03/30 02:36:34;;;;;;;;;64.00;50.25;;;;;14.22;61.21;99887.16;5010205;28;45720;-69
2022/03/30 02:39:00;;;;;;;;;66.75;54.00;;;;;14.33;60.95;99893.84;5017606;28;45321;-69
2022/03/30 02:41:25;;;;;;;;;65.50;52.25;;;;;14.30;60.43;99879.03;5017634;28;45277;-73
2022/03/30 02:43:50;;;;;;;;;60.00;48.00;;;;;14.41;60.81;99885.69;5017580;28;46717;-69
2022/03/30 02:46:16;;;;;;;;;64.50;50.75;;;;;14.41;60.67;99884.88;5017366;28;45205;-69
2022/03/30 02:48:42;;;;;;;;;62.25;52.25;;;;;14.42;60.64;99881.22;5017352;28;45482;-69
2022/03/30 02:51:09;;;;;;;;;69.75;54.25;;;;;14.38;60.54;99882.59;5017246;28;45524;-69
2022/03/30 02:53:34;;;;;;;;;65.50;52.75;;;;;14.42;61.13;99881.22;5016984;28;46750;-69
2022/03/30 02:56:01;;;;;;;;;67.25;53.25;;;;;14.35;61.12;99873.09;5017103;28;45435;-69
2022/03/30 02:58:27;;;;;;;;;65.00;51.50;;;;;14.24;61.48;99871.78;5015212;28;45503;-69
2022/03/30 03:00:56;;;;;;;;;63.00;50.25;;;;;14.31;61.61;99875.34;5017355;28;45488;-70
2022/03/30 03:03:23;;;;;;;;;74.00;55.75;;;;;14.27;61.63;99879.41;5016886;28;46589;-69
2022/03/30 03:05:48;;;;;;;;;71.00;55.00;;;;;14.16;62.45;99871.88;5016299;28;45328;-67
2022/03/30 03:08:14;;;;;;;;;69.25;55.00;;;;;14.09;62.50;99860.28;5017350;28;45337;-70
2022/03/30 03:10:42;;;;;;;;;66.75;52.50;;;;;14.16;62.16;99874.53;5016046;28;45562;-70
2022/03/30 03:13:08;;;;;;;;;66.00;53.25;;;;;14.17;61.52;99862.00;5016895;28;46397;-69
2022/03/30 03:15:35;;;;;;;;;66.25;52.00;;;;;13.66;61.99;99780.03;5016882;28;45436;-69
2022/03/30 03:18:04;;;;;;;;;66.75;54.75;;;;;14.17;61.40;99865.50;5016408;28;45454;-69
2022/03/30 03:20:30;;;;;;;;;66.00;53.25;;;;;14.28;61.95;99872.22;5015873;28;45535;-70
2022/03/30 03:22:56;;;;;;;;;62.50;50.50;;;;;14.11;61.92;99858.25;4998786;28;46039;-70
2022/03/30 03:25:22;;;;;;;;;69.25;55.00;;;;;14.17;62.44;99864.66;5016841;28;45838;-70
2022/03/30 03:27:47;;;;;;;;;65.25;51.25;;;;;14.03;62.29;99855.69;5012173;28;45464;-70
2022/03/30 03:30:14;;;;;;;;;61.75;49.50;;;;;13.94;63.00;99851.47;5016124;28;45293;-70
2022/03/30 03:32:40;;;;;;;;;73.25;56.75;;;;;13.84;63.27;99838.41;5016651;28;45853;-69
2022/03/30 03:35:08;;;;;;;;;63.50;49.75;;;;;13.67;63.76;99813.75;5015460;28;45315;-69
2022/03/30 03:37:37;;;;;;;;;70.50;54.75;;;;;13.94;63.22;99856.81;5016888;28;45392;-69
2022/03/30 03:40:04;;;;;;;;;55.25;46.50;;;;;13.95;63.47;99858.47;5016858;28;45637;-69
2022/03/30 03:42:29;;;;;;;;;56.50;46.25;;;;;13.85;63.52;99831.22;5016428;28;45363;-70
2022/03/30 03:44:54;;;;;;;;;70.25;53.75;;;;;14.01;62.85;99844.34;5016392;28;45233;-69
2022/03/30 03:47:20;;;;;;;;;67.25;50.00;;;;;14.06;62.81;99852.63;5016171;28;45490;-69
2022/03/30 03:49:46;;;;;;;;;63.25;49.75;;;;;13.77;63.03;99823.28;5016552;28;45248;-69
2022/03/30 03:52:11;;;;;;;;;63.75;51.00;;;;;13.52;63.34;99790.75;5016715;28;46256;-69
2022/03/30 03:54:36;;;;;;;;;69.50;51.75;;;;;13.78;63.23;99838.31;5014522;28;45317;-69
2022/03/30 03:57:02;;;;;;;;;65.25;52.25;;;;;13.74;63.80;99850.38;5015340;28;45536;-69
2022/03/30 03:59:27;;;;;;;;;63.00;50.00;;;;;13.75;63.98;99854.72;5015072;28;45686;-69
2022/03/30 04:01:53;;;;;;;;;71.50;55.75;;;;;13.66;64.54;99841.47;5016082;28;45757;-69
2022/03/30 04:04:18;;;;;;;;;73.50;56.25;;;;;13.59;64.38;99831.69;5016336;28;45553;-70
2022/03/30 04:06:46;;;;;;;;;62.00;49.25;;;;;13.67;64.65;99845.78;5015187;28;45494;-70
2022/03/30 04:09:12;;;;;;;;;67.00;53.25;;;;;13.10;64.85;99758.34;5016584;28;45464;-69
2022/03/30 04:11:37;;;;;;;;;72.75;56.75;;;;;13.63;64.87;99847.19;5015534;28;46899;-69
2022/03/30 04:14:03;;;;;;;;;71.25;57.50;;;;;13.57;64.76;99855.91;5016189;28;45241;-68
2022/03/30 04:16:28;;;;;;;;;74.50;58.25;;;;;13.61;64.76;99849.19;5015659;28;45292;-68
2022/03/30 04:18:54;;;;;;;;;75.25;60.00;;;;;13.72;64.25;99847.91;5016135;28;45220;-69
2022/03/30 04:21:22;;;;;;;;;70.00;57.25;;;;;13.73;64.37;99830.03;4994945;28;46926;-69
2022/03/30 04:23:48;;;;;;;;;79.00;60.75;;;;;13.85;64.19;99832.06;5016393;28;45404;-70
2022/03/30 04:26:13;;;;;;;;;81.25;64.00;;;;;13.93;63.80;99836.44;5019762;28;45387;-69
2022/03/30 04:28:45;;;;;;;;;73.25;58.50;;;;;14.08;63.48;99844.44;5019773;28;45441;-69
2022/03/30 04:31:11;;;;;;;;;65.00;52.00;;;;;14.04;62.73;99819.94;5018439;28;45771;-69
2022/03/30 04:33:38;;;;;;;;;71.75;56.50;;;;;14.26;62.14;99839.50;5019065;28;45368;-70
2022/03/30 04:36:05;;;;;;;;;67.75;52.50;;;;;14.24;61.97;99830.84;5015330;28;45392;-70
2022/03/30 04:38:31;;;;;;;;;73.25;55.50;;;;;14.32;61.72;99839.56;5019694;28;45354;-70
2022/03/30 04:40:57;;;;;;;;;73.75;58.25;;;;;14.43;61.80;99835.59;5018867;28;46397;-69
2022/03/30 04:43:22;;;;;;;;;68.75;54.75;;;;;14.41;61.65;99826.03;5018994;28;45251;-70
2022/03/30 04:45:51;;;;;;;;;75.75;58.50;;;;;14.10;61.54;99775.56;5019477;28;45474;-70
2022/03/30 04:48:16;;;;;;;;;73.25;57.75;;;;;14.36;61.18;99809.75;5019175;28;45435;-71
2022/03/30 04:50:42;;;;;;;;;67.25;55.50;;;;;14.42;61.46;99830.41;5014459;28;46519;-70
2022/03/30 04:53:07;;;;;;;;;77.00;59.50;;;;;14.37;61.60;99814.09;5014313;28;45493;-70
2022/03/30 04:55:33;;;;;;;;;75.25;59.50;;;;;14.41;61.84;99826.03;5017834;28;45999;-69
2022/03/30 04:57:59;;;;;;;;;71.75;55.50;;;;;14.34;61.75;99809.13;5019628;28;45458;-70
2022/03/30 05:00:24;;;;;;;;;74.75;57.50;;;;;14.49;61.59;99815.28;5018845;28;46729;-69
2022/03/30 05:02:50;;;;;;;;;74.25;58.50;;;;;14.51;61.31;99794.50;5018669;28;45429;-71
2022/03/30 05:05:16;;;;;;;;;76.00;60.00;;;;;14.61;61.40;99816.38;5018813;28;45473;-70
2022/03/30 05:07:41;;;;;;;;;70.25;55.50;;;;;14.52;61.08;99793.47;5018723;28;45337;-70
2022/03/30 05:10:10;;;;;;;;;70.00;55.50;;;;;14.62;61.01;99802.03;5015867;28;48228;-69
2022/03/30 05:12:36;;;;;;;;;72.25;58.00;;;;;14.31;60.75;99752.34;5018378;28;45575;-71
2022/03/30 05:15:02;;;;;;;;;74.75;56.25;;;;;14.64;60.82;99810.69;5018268;28;45240;-69
2022/03/30 05:17:28;;;;;;;;;70.25;55.75;;;;;14.66;60.56;99808.63;5018328;28;45461;-70
2022/03/30 05:19:53;;;;;;;;;71.25;55.75;;;;;14.70;60.64;99815.25;5016592;28;47194;-72
2022/03/30 05:22:19;;;;;;;;;70.00;54.75;;;;;14.67;60.57;99802.25;5018483;28;45320;-69
2022/03/30 05:24:44;;;;;;;;;73.00;58.25;;;;;14.34;60.80;99752.97;5018063;28;45475;-73
2022/03/30 05:27:09;;;;;;;;;76.50;59.25;;;;;14.62;60.40;99796.66;5017972;28;45502;-70
2022/03/30 05:29:36;;;;;;;;;74.00;57.50;;;;;14.69;60.87;99805.56;5018117;28;45523;-69
2022/03/30 05:32:02;;;;;;;;;75.75;57.75;;;;;14.52;60.68;99772.09;5008826;28;45445;-69
2022/03/30 05:34:28;;;;;;;;;77.50;59.00;;;;;14.72;61.13;99805.19;5017005;28;46303;-70
2022/03/30 05:36:53;;;;;;;;;70.75;55.25;;;;;14.81;60.68;99811.19;5017423;28;45442;-69
2022/03/30 05:39:19;;;;;;;;;73.00;57.50;;;;;14.58;60.35;99769.44;5008748;28;49006;-71
2022/03/30 05:41:44;;;;;;;;;71.75;57.00;;;;;14.90;60.03;99812.72;5012354;28;45495;-70
2022/03/30 05:44:10;;;;;;;;;72.75;58.25;;;;;14.96;60.32;99816.47;5018032;28;45478;-69
2022/03/30 05:46:36;;;;;;;;;75.25;59.00;;;;;14.99;60.04;99814.22;5017080;28;45578;-69
2022/03/30 05:49:03;;;;;;;;;66.00;53.50;;;;;14.98;60.06;99806.38;5017781;28;46607;-70
2022/03/30 05:51:29;;;;;;;;;79.00;61.75;;;;;14.63;60.35;99750.16;5017491;28;45496;-68
2022/03/30 05:53:54;;;;;;;;;73.75;57.00;;;;;14.57;60.39;99733.03;5017727;28;46215;-70
2022/03/30 05:56:59;;;;;;;;;77.00;59.25;;;;;15.00;60.17;99798.97;5017833;28;45265;-71
2022/03/30 05:59:05;;;;;;;;;78.00;59.75;;;;;14.98;60.07;99787.66;5017311;28;46087;-73
2022/03/30 06:01:31;;;;;;;;;69.50;54.50;;;;;15.12;60.22;99808.13;5009856;28;45561;-70
2022/03/30 06:03:56;;;;;;;;;72.00;56.75;;;;;15.14;60.25;99812.28;5017480;28;45358;-70
2022/03/30 06:06:21;;;;;;;;;68.75;51.50;;;;;15.17;59.92;99816.41;5016568;28;45598;-72
2022/03/30 06:08:47;;;;;;;;;70.25;56.00;;;;;15.17;60.28;99821.75;5012770;28;45620;-70
2022/03/30 06:11:12;;;;;;;;;71.00;56.75;;;;;14.99;60.13;99816.06;5017741;28;45233;-69
2022/03/30 06:13:38;;;;;;;;;78.75;60.25;;;;;14.85;60.69;99807.13;5017893;28;45247;-70
2022/03/30 06:16:07;;;;;;;;;80.50;59.75;;;;;14.90;60.91;99820.75;5018701;28;45486;-72
2022/03/30 06:18:33;;;;;;;;;77.25;57.75;;;;;14.75;61.36;99823.50;5016078;28;46817;-68
2022/03/30 06:20:58;;;;;;;;;77.00;62.25;;;;;14.59;61.90;99829.97;5016897;28;45312;-67
2022/03/30 06:23:24;;;;;;;;;74.50;59.00;;;;;14.38;62.94;99815.72;5017112;28;45596;-72
2022/03/30 06:25:51;;;;;;;;;79.25;63.75;;;;;14.38;63.01;99826.44;5018552;28;45257;-68
2022/03/30 06:28:21;;;;;;;;;73.75;58.00;;;;;14.33;63.30;99824.34;5017458;28;45517;-70
2022/03/30 06:30:46;;;;;;;;;76.75;60.25;;;;;14.32;63.00;99812.81;5016321;28;45363;-69
2022/03/30 06:33:12;;;;;;;;;70.00;56.00;;;;;14.41;62.87;99826.88;5015755;28;45326;-74
2022/03/30 06:35:38;;;;;;;;;76.00;58.50;;;;;14.37;62.86;99819.44;5017472;28;45455;-68
2022/03/30 06:38:03;;;;;;;;;75.50;59.75;;;;;14.42;62.35;99822.38;5007434;28;47611;-67
2022/03/30 06:40:29;;;;;;;;;74.75;58.75;;;;;14.57;62.07;99825.81;5016921;28;45493;-75
2022/03/30 06:42:56;;;;;;;;;73.50;57.75;;;;;14.48;61.69;99801.06;5016031;28;45315;-69
2022/03/30 06:45:22;;;;;;;;;72.25;58.75;;;;;14.64;61.90;99815.19;5014710;28;45603;-69
2022/03/30 06:47:50;;;;;;;;;72.50;57.75;;;;;14.76;62.01;99825.16;5015151;28;48749;-68
2022/03/30 06:50:18;;;;;;;;;78.25;60.75;;;;;14.70;62.84;99831.31;5014007;28;45463;-69
2022/03/30 06:52:44;;;;;;;;;75.25;58.00;;;;;14.58;63.45;99838.19;5015337;28;45565;-70
2022/03/30 06:55:12;;;;;;;;;71.00;55.25;;;;;14.41;64.60;99832.22;5016636;28;45391;-68
2022/03/30 06:57:38;;;;;;;;;78.00;61.00;;;;;14.36;64.46;99823.13;5016454;28;45419;-69
2022/03/30 07:00:05;;;;;;;;;78.50;59.00;;;;;13.78;64.44;99731.44;5016188;28;45503;-70
2022/03/30 07:02:33;;;;;;;;;71.75;59.00;;;;;14.44;64.60;99836.41;5015151;28;45473;-70
2022/03/30 07:04:59;;;;;;;;;78.75;58.50;;;;;14.44;64.71;99821.19;5008352;28;45534;-68
2022/03/30 07:10:15;;;;;;;;;76.75;57.75;;;;;14.38;64.92;99831.78;5015975;28;45564;-71
2022/03/30 07:12:40;;;;;;;;;77.75;59.75;;;;;13.84;65.24;99754.75;5016060;28;45467;-69
2022/03/30 07:15:07;;;;;;;;;75.00;57.25;;;;;13.46;65.39;99704.19;5016656;28;45455;-69
2022/03/30 07:17:33;;;;;;;;;73.75;57.25;;;;;14.10;65.34;99821.84;5015886;28;45301;-70
2022/03/30 07:19:59;;;;;;;;;66.25;53.75;;;;;13.77;65.18;99777.88;5013598;28;45455;-69
2022/03/30 07:22:24;;;;;;;;;75.25;60.75;;;;;13.77;65.96;99797.41;5006251;28;45406;-67
2022/03/30 07:24:50;;;;;;;;;75.00;59.00;;;;;13.94;66.02;99840.78;5013474;28;45376;-67
2022/03/30 07:27:16;;;;;;;;;73.50;59.00;;;;;13.89;66.10;99832.50;5014984;28;46302;-68
2022/03/30 07:29:41;;;;;;;;;75.25;58.75;;;;;13.81;66.82;99830.75;5015829;28;45393;-68
2022/03/30 07:32:10;;;;;;;;;70.50;56.00;;;;;13.72;66.68;99817.69;5016134;28;45431;-70
2022/03/30 07:34:36;;;;;;;;;82.25;62.25;;;;;13.63;66.58;99793.78;5016614;28;45539;-69
2022/03/30 07:37:03;;;;;;;;;76.25;60.75;;;;;13.66;66.87;99801.41;5016027;28;46429;-65
2022/03/30 07:39:29;;;;;;;;;77.50;58.75;;;;;13.82;66.88;99828.94;5015863;28;45627;-68
2022/03/30 07:41:54;;;;;;;;;75.75;60.50;;;;;13.66;66.75;99838.81;4994867;28;45369;-67
2022/03/30 07:44:20;;;;;;;;;78.25;61.00;;;;;13.46;67.90;99832.38;5015971;28;45356;-69
2022/03/30 07:46:48;;;;;;;;;72.75;59.00;;;;;12.93;68.12;99746.19;5015817;28;45944;-68
2022/03/30 07:49:15;;;;;;;;;73.50;62.00;;;;;13.46;67.42;99827.03;5015437;28;45293;-69
2022/03/30 07:51:41;;;;;;;;;71.75;58.00;;;;;13.19;67.52;99766.25;5015797;28;45287;-67
2022/03/30 07:54:06;;;;;;;;;74.00;58.25;;;;;13.61;67.19;99830.50;5015119;28;45170;-68
2022/03/30 07:56:32;;;;;;;;;68.75;53.00;;;;;13.47;67.12;99822.50;5013555;28;47178;-66
2022/03/30 07:58:59;;;;;;;;;80.75;61.50;;;;;13.42;67.38;99841.78;5024434;28;45565;-66
2022/03/30 08:01:25;;;;;;;;;70.00;55.25;;;;;13.29;67.89;99836.22;5019409;28;45559;-68
2022/03/30 08:03:53;;;;;;;;;70.25;56.50;;;;;13.10;68.29;99824.22;5016500;28;45580;-70
2022/03/30 08:06:18;;;;;;;;;77.75;59.75;;;;;12.51;68.67;99754.78;5016362;28;46385;-72
2022/03/30 08:08:44;;;;;;;;;68.75;55.50;;;;;12.67;69.27;99791.13;5015095;28;45474;-68
2022/03/30 08:11:09;;;;;;;;;70.75;56.50;;;;;12.91;68.85;99844.25;5014500;28;45441;-69
2022/03/30 08:13:35;;;;;;;;;74.50;60.75;;;;;12.99;68.64;99840.66;5016813;28;45551;-67
2022/03/30 08:16:02;;;;;;;;;68.75;53.75;;;;;12.93;68.89;99846.72;5011671;28;45981;-68
2022/03/30 08:18:28;;;;;;;;;70.50;57.25;;;;;12.80;69.59;99834.00;5017452;28;45384;-67
2022/03/30 08:23:39;;;;;;;;;68.50;57.00;;;;;12.97;69.08;99843.50;5016533;28;45593;-68
2022/03/30 08:26:05;;;;;;;;;70.75;56.50;;;;;12.90;70.58;99847.94;5015030;28;48508;-70
2022/03/30 08:28:33;;;;;;;;;72.25;58.25;;;;;12.55;71.65;99806.72;5016810;28;45507;-68
2022/03/30 08:30:59;;;;;;;;;71.75;59.75;;;;;12.82;72.82;99841.84;5009940;28;45724;-74
2022/03/30 08:33:26;;;;;;;;;69.25;52.75;;;;;12.82;72.76;99842.69;5017118;28;45348;-67
2022/03/30 08:35:53;;;;;;;;;70.25;55.00;;;;;12.62;72.48;99820.19;5018101;28;45812;-66
2022/03/30 08:38:45;;;;;;;;;71.50;56.25;;;;;12.84;72.62;99842.50;5018566;28;45467;-69
2022/03/30 08:41:11;;;;;;;;;69.25;52.00;;;;;12.68;72.41;99830.13;5018587;28;45249;-66
2022/03/30 08:43:39;;;;;;;;;72.50;59.50;;;;;12.68;73.13;99832.78;5017160;28;45292;-67
2022/03/30 08:46:04;;;;;;;;;70.75;56.00;;;;;12.70;73.03;99825.44;5018554;28;46082;-67
2022/03/30 08:48:30;;;;;;;;;69.75;54.75;;;;;12.82;72.93;99820.50;5018174;28;46240;-68
2022/03/30 08:50:58;;;;;;;;;70.25;57.50;;;;;12.71;72.60;99811.09;5018765;28;45487;-68
2022/03/30 08:53:25;;;;;;;;;68.50;55.75;;;;;12.64;72.20;99772.84;5018547;28;45740;-67
2022/03/30 08:55:51;;;;;;;;;70.00;58.00;;;;;12.45;72.03;99748.34;5018343;28;46590;-68
2022/03/30 08:58:16;;;;;;;;;71.25;59.50;;;;;12.95;71.74;99829.53;5018324;28;45266;-67
2022/03/30 09:00:42;;;;;;;;;69.50;55.75;;;;;12.62;71.54;99765.00;5018544;28;45994;-68
2022/03/30 09:03:08;;;;;;;;;66.75;49.50;;;;;13.13;70.85;99836.38;5018360;28;45539;-67
2022/03/30 09:05:37;;;;;;;;;73.50;58.75;;;;;13.05;70.76;99840.78;5017907;28;46573;-68
2022/03/30 09:08:25;;;;;;;;;72.75;60.25;;;;;13.02;70.70;99814.47;5017947;28;45312;-66
2022/03/30 09:10:53;;;;;;;;;66.75;51.75;;;;;12.83;70.58;99771.50;5018154;28;45563;-68
2022/03/30 09:13:19;;;;;;;;;68.75;55.25;;;;;13.19;70.59;99830.31;5018427;28;45374;-68
2022/03/30 09:15:47;;;;;;;;;69.75;54.00;;;;;13.22;71.45;99841.47;5017862;28;45649;-69
2022/03/30 09:18:16;;;;;;;;;74.50;56.50;;;;;13.34;70.83;99842.66;5016502;28;46448;-66
2022/03/30 09:20:55;;;;;;;;;65.75;51.00;;;;;13.07;70.16;99769.38;5018054;28;45243;-67
2022/03/30 09:23:24;;;;;;;;;71.50;56.50;;;;;13.79;69.36;99839.97;5018166;28;45506;-68
2022/03/30 09:25:50;;;;;;;;;75.25;60.00;;;;;13.84;68.83;99824.22;5017688;28;45185;-68
2022/03/30 09:28:18;;;;;;;;;75.75;59.25;;;;;13.92;68.51;99826.78;5013224;28;45729;-69
2022/03/30 09:30:44;;;;;;;;;69.75;52.75;;;;;14.15;67.98;99832.78;5016344;28;45438;-68
2022/03/30 09:33:11;;;;;;;;;81.00;61.75;;;;;14.27;67.97;99841.16;5017868;28;45571;-69
2022/03/30 09:35:39;;;;;;;;;75.25;60.00;;;;;14.35;67.27;99821.47;5017541;28;46128;-67
2022/03/30 09:38:18;;;;;;;;;74.50;59.25;;;;;14.71;66.90;99834.81;5018072;28;45353;-68
2022/03/30 09:40:48;;;;;;;;;69.25;55.50;;;;;14.89;65.94;99819.94;5017879;28;45457;-68
2022/03/30 09:43:34;;;;;;;;;77.75;60.75;;;;;15.09;65.43;99827.28;5018020;28;45446;-67
2022/03/30 09:46:03;;;;;;;;;79.00;61.00;;;;;15.33;63.87;99832.16;5017763;28;45293;-69
2022/03/30 09:48:30;;;;;;;;;69.25;55.25;;;;;15.41;63.95;99829.31;5018004;28;45438;-67
2022/03/30 09:51:00;;;;;;;;;75.75;57.00;;;;;14.31;64.12;99626.69;5017314;28;45478;-68
2022/03/30 09:53:28;;;;;;;;;67.00;53.50;;;;;15.72;62.47;99809.31;5016501;28;45481;-68
2022/03/30 09:56:01;;;;;;;;;69.25;56.00;;;;;15.84;62.40;99812.25;5017460;28;46702;-68
2022/03/30 09:58:38;;;;;;;;;67.25;51.50;;;;;15.81;62.14;99792.84;5017408;28;45384;-68
2022/03/30 10:01:09;;;;;;;;;71.75;56.25;;;;;16.11;61.41;99830.06;4999751;28;46437;-68
2022/03/30 10:03:37;;;;;;;;;68.75;54.75;;;;;15.56;60.52;99750.69;5017731;28;45510;-67
2022/03/30 10:06:04;;;;;;;;;71.25;53.00;;;;;15.45;60.98;99787.75;5015788;28;48370;-68
2022/03/30 10:08:31;;;;;;;;;67.50;54.00;;;;;15.67;60.91;99806.41;5007842;28;45475;-69
2022/03/30 10:10:57;;;;;;;;;72.00;53.00;;;;;15.83;60.05;99819.47;5007726;28;45874;-68
2022/03/30 10:13:24;;;;;;;;;71.25;54.50;;;;;15.83;59.71;99816.78;5017425;28;45273;-69
2022/03/30 10:15:50;;;;;;;;;68.25;53.50;;;;;15.59;60.11;99785.97;5015628;28;47497;-69
2022/03/30 10:18:16;;;;;;;;;71.00;52.75;;;;;15.52;60.04;99777.88;5016942;28;45287;-69
2022/03/30 10:20:41;;;;;;;;;69.50;53.50;;;;;15.44;60.28;99783.41;5015803;28;45527;-70
2022/03/30 10:23:21;;;;;;;;;62.50;47.75;;;;;15.52;60.64;99810.03;5017223;28;45388;-69
2022/03/30 10:26:08;;;;;;;;;70.50;53.75;;;;;15.52;60.11;99814.56;5017247;28;45870;-70
2022/03/30 10:28:40;;;;;;;;;68.25;54.25;;;;;15.73;60.14;99813.66;5015799;28;45411;-68
2022/03/30 10:31:06;;;;;;;;;74.00;57.75;;;;;15.90;60.46;99812.28;5016771;28;45479;-69
2022/03/30 10:33:42;;;;;;;;;70.75;55.00;;;;;16.01;59.72;99809.00;5017317;28;45439;-68
2022/03/30 10:36:32;;;;;;;;;72.50;55.75;;;;;16.19;58.37;99811.09;5016620;28;46237;-69
2022/03/30 10:39:16;;;;;;;;;68.75;52.50;;;;;16.33;58.22;99804.75;5013909;28;45444;-67
2022/03/30 10:42:03;;;;;;;;;71.50;55.50;;;;;16.50;56.27;99777.53;5015650;28;45287;-68
2022/03/30 10:44:41;;;;;;;;;67.75;53.25;;;;;16.69;56.10;99800.88;5017428;28;45527;-69
2022/03/30 10:47:21;;;;;;;;;72.50;55.00;;;;;16.65;55.95;99791.56;5016381;28;47460;-68
2022/03/30 10:50:09;;;;;;;;;68.00;53.50;;;;;16.67;55.53;99793.03;5012289;28;45430;-69
2022/03/30 10:52:41;;;;;;;;;70.25;53.25;;;;;16.52;55.57;99791.56;5010109;28;45407;-68
2022/03/30 10:55:12;;;;;;;;;68.75;54.75;;;;;16.59;55.46;99789.69;5007485;28;45300;-67
2022/03/30 10:58:02;;;;;;;;;67.75;49.25;;;;;16.61;55.37;99775.03;5015392;28;47319;-68
2022/03/30 11:00:35;;;;;;;;;69.25;53.50;;;;;16.73;54.89;99784.16;5014712;28;46753;-68
2022/03/30 11:03:21;;;;;;;;;68.25;54.00;;;;;16.74;55.23;99779.59;5016676;28;45510;-70
2022/03/30 11:06:05;;;;;;;;;67.50;53.25;;;;;16.96;54.92;99772.16;5015231;28;45424;-69
2022/03/30 11:08:34;;;;;;;;;67.25;53.25;;;;;17.09;53.64;99769.44;5015440;28;48184;-69
2022/03/30 11:11:19;;;;;;;;;72.75;53.50;;;;;17.16;54.33;99769.41;5007555;28;45458;-69
2022/03/30 11:13:45;;;;;;;;;68.75;52.50;;;;;17.27;53.26;99766.91;5011232;28;45425;-69
2022/03/30 11:16:17;;;;;;;;;63.50;49.50;;;;;17.18;53.26;99749.38;5016570;28;45422;-72
2022/03/30 11:19:02;;;;;;;;;66.75;52.25;;;;;17.40;52.38;99773.28;5016792;28;46215;-69
2022/03/30 11:21:34;;;;;;;;;64.50;51.50;;;;;17.12;52.06;99755.59;5016480;28;45206;-67
2022/03/30 11:24:12;;;;;;;;;67.00;52.75;;;;;17.20;52.17;99744.59;5016399;28;45434;-67
2022/03/30 11:26:52;;;;;;;;;62.25;50.75;;;;;17.48;52.39;99756.94;5016856;28;45305;-70